sensor_id;sensor_type;location;lat;lon;timestamp;pressure;altitude;pressure_sealevel;temperature;humidity
12799;BME280;19250;42.646;26.980;2023-02-18T00:00:22;99584.66;;;9.08;76.98
12799;BME280;19250;42.646;26.980;2023-02-18T00:02:50;99505.63;;;8.49;79.63
12799;BME280;19250;42.646;26.980;2023-02-18T00:05:17;99575.50;;;9.01;80.10
12799;BME280;19250;42.646;26.980;2023-02-18T00:07:46;99584.88;;;8.95;82.95
12799;BME280;19250;42.646;26.980;2023-02-18T00:10:14;99571.59;;;8.74;84.84
12799;BME280;19250;42.646;26.980;2023-02-18T00:12:42;99576.66;;;8.77;85.08
12799;BME280;19250;42.646;26.980;2023-02-18T00:15:09;99575.00;;;8.77;85.26
12799;BME280;19250;42.646;26.980;2023-02-18T00:17:36;99576.31;;;8.61;85.55
12799;BME280;19250;42.646;26.980;2023-02-18T00:20:05;99578.75;;;8.74;84.43
12799;BME280;19250;42.646;26.980;2023-02-18T00:22:33;99566.75;;;8.49;87.61
12799;BME280;19250;42.646;26.980;2023-02-18T00:25:02;99570.72;;;8.34;90.63
12799;BME280;19250;42.646;26.980;2023-02-18T00:27:29;99570.47;;;8.26;92.58
12799;BME280;19250;42.646;26.980;2023-02-18T00:33:43;99567.13;;;7.72;100.00
12799;BME280;19250;42.646;26.980;2023-02-18T00:36:20;99551.72;;;7.65;100.00
12799;BME280;19250;42.646;26.980;2023-02-18T00:38:49;99551.84;;;7.64;100.00
12799;BME280;19250;42.646;26.980;2023-02-18T00:41:20;99537.75;;;7.63;100.00
12799;BME280;19250;42.646;26.980;2023-02-18T00:43:48;99535.28;;;7.72;100.00
12799;BME280;19250;42.646;26.980;2023-02-18T00:46:15;99531.25;;;7.77;99.35
12799;BME280;19250;42.646;26.980;2023-02-18T00:48:42;99526.78;;;7.89;97.30
12799;BME280;19250;42.646;26.980;2023-02-18T00:51:10;99525.00;;;7.99;95.18
12799;BME280;19250;42.646;26.980;2023-02-18T00:53:38;99520.41;;;8.01;93.73
12799;BME280;19250;42.646;26.980;2023-02-18T00:56:05;99517.63;;;8.02;93.31
12799;BME280;19250;42.646;26.980;2023-02-18T00:58:34;99509.31;;;7.96;93.01
12799;BME280;19250;42.646;26.980;2023-02-18T01:01:03;99513.69;;;7.97;92.65
12799;BME280;19250;42.646;26.980;2023-02-18T01:03:30;99507.66;;;7.95;91.71
12799;BME280;19250;42.646;26.980;2023-02-18T01:05:57;99510.19;;;7.96;90.84
12799;BME280;19250;42.646;26.980;2023-02-18T01:08:25;99514.97;;;8.02;89.69
12799;BME280;19250;42.646;26.980;2023-02-18T01:10:54;99509.03;;;8.10;88.91
12799;BME280;19250;42.646;26.980;2023-02-18T01:13:22;99504.03;;;7.96;89.56
12799;BME280;19250;42.646;26.980;2023-02-18T01:15:51;99498.63;;;7.86;90.58
12799;BME280;19250;42.646;26.980;2023-02-18T01:18:19;99494.66;;;7.92;89.82
12799;BME280;19250;42.646;26.980;2023-02-18T01:20:47;99502.66;;;8.01;88.42
12799;BME280;19250;42.646;26.980;2023-02-18T01:23:15;99495.59;;;7.91;88.53
12799;BME280;19250;42.646;26.980;2023-02-18T01:25:42;99500.06;;;7.90;88.09
12799;BME280;19250;42.646;26.980;2023-02-18T01:28:11;99501.69;;;7.82;88.94
12799;BME280;19250;42.646;26.980;2023-02-18T01:30:40;99492.88;;;7.60;90.65
12799;BME280;19250;42.646;26.980;2023-02-18T01:33:09;99495.97;;;7.45;92.33
12799;BME280;19250;42.646;26.980;2023-02-18T01:35:37;99488.38;;;7.40;92.88
12799;BME280;19250;42.646;26.980;2023-02-18T01:38:04;99480.63;;;7.48;93.01
12799;BME280;19250;42.646;26.980;2023-02-18T01:40:32;99476.69;;;7.43;92.69
12799;BME280;19250;42.646;26.980;2023-02-18T01:42:59;99471.50;;;7.41;93.48
12799;BME280;19250;42.646;26.980;2023-02-18T01:45:49;99469.41;;;7.24;95.43
12799;BME280;19250;42.646;26.980;2023-02-18T01:48:22;99475.47;;;7.15;96.81
12799;BME280;19250;42.646;26.980;2023-02-18T01:50:55;99472.53;;;7.71;94.68
12799;BME280;19250;42.646;26.980;2023-02-18T01:53:26;99467.63;;;7.87;91.15
12799;BME280;19250;42.646;26.980;2023-02-18T01:55:56;99463.94;;;7.57;92.94
12799;BME280;19250;42.646;26.980;2023-02-18T01:58:24;99443.59;;;7.47;93.61
12799;BME280;19250;42.646;26.980;2023-02-18T02:00:52;99447.41;;;7.01;98.25
12799;BME280;19250;42.646;26.980;2023-02-18T02:03:20;99444.03;;;6.99;99.95
12799;BME280;19250;42.646;26.980;2023-02-18T02:05:47;99450.75;;;7.67;95.35
12799;BME280;19250;42.646;26.980;2023-02-18T02:08:15;99447.66;;;7.83;93.96
12799;BME280;19250;42.646;26.980;2023-02-18T02:11:01;99434.53;;;7.29;97.38
12799;BME280;19250;42.646;26.980;2023-02-18T02:13:39;99442.31;;;7.41;97.63
12799;BME280;19250;42.646;26.980;2023-02-18T02:16:13;99453.50;;;7.65;95.48
12799;BME280;19250;42.646;26.980;2023-02-18T02:18:57;99451.78;;;7.23;97.72
12799;BME280;19250;42.646;26.980;2023-02-18T02:21:51;99459.00;;;7.53;96.47
12799;BME280;19250;42.646;26.980;2023-02-18T02:27:25;99466.16;;;7.73;93.90
12799;BME280;19250;42.646;26.980;2023-02-18T02:36:07;99480.59;;;8.01;92.01
12799;BME280;19250;42.646;26.980;2023-02-18T02:38:39;99477.38;;;7.77;93.74
12799;BME280;19250;42.646;26.980;2023-02-18T02:41:16;99477.00;;;7.49;95.64
12799;BME280;19250;42.646;26.980;2023-02-18T02:43:55;99491.00;;;7.40;96.30
12799;BME280;19250;42.646;26.980;2023-02-18T02:46:30;99471.44;;;7.52;93.44
12799;BME280;19250;42.646;26.980;2023-02-18T02:49:08;99512.16;;;7.62;93.84
12799;BME280;19250;42.646;26.980;2023-02-18T02:51:45;99498.34;;;7.48;95.19
12799;BME280;19250;42.646;26.980;2023-02-18T02:54:16;99490.22;;;7.29;97.22
12799;BME280;19250;42.646;26.980;2023-02-18T02:56:44;99496.56;;;7.37;96.46
12799;BME280;19250;42.646;26.980;2023-02-18T02:59:14;99489.84;;;7.86;94.69
12799;BME280;19250;42.646;26.980;2023-02-18T03:01:59;99493.78;;;7.71;93.99
12799;BME280;19250;42.646;26.980;2023-02-18T03:04:43;99491.88;;;7.41;95.11
12799;BME280;19250;42.646;26.980;2023-02-18T03:07:32;99487.22;;;7.22;97.30
12799;BME280;19250;42.646;26.980;2023-02-18T03:10:21;99481.94;;;7.54;96.21
12799;BME280;19250;42.646;26.980;2023-02-18T03:12:56;99475.06;;;6.88;99.99
12799;BME280;19250;42.646;26.980;2023-02-18T03:15:39;99459.72;;;5.80;100.00
12799;BME280;19250;42.646;26.980;2023-02-18T03:18:14;99422.34;;;5.39;100.00
12799;BME280;19250;42.646;26.980;2023-02-18T03:20:48;99466.66;;;5.59;100.00
12799;BME280;19250;42.646;26.980;2023-02-18T03:23:22;99461.38;;;5.70;100.00
12799;BME280;19250;42.646;26.980;2023-02-18T03:25:52;99457.88;;;5.59;100.00
12799;BME280;19250;42.646;26.980;2023-02-18T03:28:22;99462.94;;;5.62;100.00
12799;BME280;19250;42.646;26.980;2023-02-18T03:30:52;99457.25;;;5.90;100.00
12799;BME280;19250;42.646;26.980;2023-02-18T03:33:25;99460.91;;;5.76;100.00
12799;BME280;19250;42.646;26.980;2023-02-18T03:35:54;99456.22;;;5.80;100.00
12799;BME280;19250;42.646;26.980;2023-02-18T03:38:28;99448.63;;;5.75;100.00
12799;BME280;19250;42.646;26.980;2023-02-18T03:40:58;99443.19;;;6.00;100.00
12799;BME280;19250;42.646;26.980;2023-02-18T03:43:25;99446.31;;;6.17;100.00
12799;BME280;19250;42.646;26.980;2023-02-18T03:45:52;99443.06;;;6.35;100.00
12799;BME280;19250;42.646;26.980;2023-02-18T03:48:20;99438.00;;;6.43;100.00
12799;BME280;19250;42.646;26.980;2023-02-18T03:50:47;99434.16;;;6.47;100.00
12799;BME280;19250;42.646;26.980;2023-02-18T03:53:14;99429.66;;;6.70;100.00
12799;BME280;19250;42.646;26.980;2023-02-18T03:55:43;99435.78;;;6.82;98.47
12799;BME280;19250;42.646;26.980;2023-02-18T03:58:10;99444.41;;;7.06;96.10
12799;BME280;19250;42.646;26.980;2023-02-18T04:24:15;99465.59;;;7.06;98.21
12799;BME280;19250;42.646;26.980;2023-02-18T04:26:42;99465.75;;;7.25;95.60
12799;BME280;19250;42.646;26.980;2023-02-18T04:29:10;99449.09;;;7.02;96.10
12799;BME280;19250;42.646;26.980;2023-02-18T04:31:37;99437.69;;;6.80;97.06
12799;BME280;19250;42.646;26.980;2023-02-18T04:34:04;99450.50;;;6.52;100.00
12799;BME280;19250;42.646;26.980;2023-02-18T04:36:32;99442.50;;;6.86;100.00
12799;BME280;19250;42.646;26.980;2023-02-18T04:39:00;99429.78;;;6.57;100.00
12799;BME280;19250;42.646;26.980;2023-02-18T04:41:28;99423.06;;;6.42;100.00
12799;BME280;19250;42.646;26.980;2023-02-18T04:43:56;99404.91;;;6.38;100.00
12799;BME280;19250;42.646;26.980;2023-02-18T04:46:24;99397.31;;;6.33;100.00
12799;BME280;19250;42.646;26.980;2023-02-18T04:48:51;99386.97;;;6.30;100.00
12799;BME280;19250;42.646;26.980;2023-02-18T04:51:19;99392.50;;;6.27;100.00
12799;BME280;19250;42.646;26.980;2023-02-18T04:53:46;99398.53;;;6.29;100.00
12799;BME280;19250;42.646;26.980;2023-02-18T04:56:13;99391.81;;;6.25;100.00
12799;BME280;19250;42.646;26.980;2023-02-18T04:58:42;99385.91;;;6.22;100.00
12799;BME280;19250;42.646;26.980;2023-02-18T05:01:09;99390.13;;;6.13;100.00
12799;BME280;19250;42.646;26.980;2023-02-18T05:03:36;99399.41;;;6.08;100.00
12799;BME280;19250;42.646;26.980;2023-02-18T05:06:04;99389.03;;;6.16;100.00
12799;BME280;19250;42.646;26.980;2023-02-18T05:08:32;99392.06;;;6.11;100.00
12799;BME280;19250;42.646;26.980;2023-02-18T05:10:59;99395.19;;;6.16;100.00
12799;BME280;19250;42.646;26.980;2023-02-18T05:13:26;99397.47;;;6.21;100.00
12799;BME280;19250;42.646;26.980;2023-02-18T05:15:55;99397.59;;;6.19;100.00
12799;BME280;19250;42.646;26.980;2023-02-18T05:18:22;99397.34;;;6.22;100.00
12799;BME280;19250;42.646;26.980;2023-02-18T05:20:49;99395.91;;;6.29;100.00
12799;BME280;19250;42.646;26.980;2023-02-18T05:23:17;99388.66;;;6.31;100.00
12799;BME280;19250;42.646;26.980;2023-02-18T05:25:46;99401.31;;;6.39;100.00
12799;BME280;19250;42.646;26.980;2023-02-18T05:28:14;99415.38;;;6.50;100.00
12799;BME280;19250;42.646;26.980;2023-02-18T05:30:41;99413.06;;;6.46;100.00
12799;BME280;19250;42.646;26.980;2023-02-18T05:33:10;99417.88;;;6.52;100.00
12799;BME280;19250;42.646;26.980;2023-02-18T05:35:37;99402.69;;;6.65;100.00
12799;BME280;19250;42.646;26.980;2023-02-18T05:38:04;99404.78;;;6.50;100.00
12799;BME280;19250;42.646;26.980;2023-02-18T05:40:32;99404.75;;;6.62;100.00
12799;BME280;19250;42.646;26.980;2023-02-18T05:42:59;99417.03;;;6.51;100.00
12799;BME280;19250;42.646;26.980;2023-02-18T05:45:26;99400.94;;;6.43;100.00
12799;BME280;19250;42.646;26.980;2023-02-18T05:47:53;99379.88;;;6.42;100.00
12799;BME280;19250;42.646;26.980;2023-02-18T05:50:22;99396.94;;;6.60;100.00
12799;BME280;19250;42.646;26.980;2023-02-18T05:52:49;99378.47;;;6.70;100.00
12799;BME280;19250;42.646;26.980;2023-02-18T05:55:17;99391.81;;;6.79;100.00
12799;BME280;19250;42.646;26.980;2023-02-18T05:57:44;99407.28;;;6.95;100.00
12799;BME280;19250;42.646;26.980;2023-02-18T06:00:12;99393.28;;;7.04;100.00
12799;BME280;19250;42.646;26.980;2023-02-18T06:02:40;99402.53;;;7.09;100.00
12799;BME280;19250;42.646;26.980;2023-02-18T06:05:08;99395.41;;;7.21;100.00
12799;BME280;19250;42.646;26.980;2023-02-18T06:07:37;99395.66;;;7.18;100.00
12799;BME280;19250;42.646;26.980;2023-02-18T06:10:05;99408.69;;;7.10;100.00
12799;BME280;19250;42.646;26.980;2023-02-18T06:12:33;99416.63;;;7.10;100.00
12799;BME280;19250;42.646;26.980;2023-02-18T06:15:00;99412.22;;;6.99;100.00
12799;BME280;19250;42.646;26.980;2023-02-18T06:17:27;99417.69;;;6.87;99.74
12799;BME280;19250;42.646;26.980;2023-02-18T06:19:55;99426.09;;;6.92;100.00
12799;BME280;19250;42.646;26.980;2023-02-18T06:22:22;99420.03;;;6.69;100.00
12799;BME280;19250;42.646;26.980;2023-02-18T06:24:51;99413.38;;;6.75;100.00
12799;BME280;19250;42.646;26.980;2023-02-18T06:27:18;99407.94;;;6.87;100.00
12799;BME280;19250;42.646;26.980;2023-02-18T06:29:45;99403.03;;;6.61;100.00
12799;BME280;19250;42.646;26.980;2023-02-18T06:32:13;99381.75;;;6.62;100.00
12799;BME280;19250;42.646;26.980;2023-02-18T06:34:40;99402.03;;;6.84;100.00
12799;BME280;19250;42.646;26.980;2023-02-18T06:37:07;99407.09;;;6.87;100.00
12799;BME280;19250;42.646;26.980;2023-02-18T06:39:35;99411.88;;;6.93;100.00
12799;BME280;19250;42.646;26.980;2023-02-18T06:42:04;99402.72;;;6.97;100.00
12799;BME280;19250;42.646;26.980;2023-02-18T06:44:32;99402.41;;;7.11;100.00
12799;BME280;19250;42.646;26.980;2023-02-18T06:46:59;99399.31;;;7.06;100.00
12799;BME280;19250;42.646;26.980;2023-02-18T06:49:26;99404.13;;;7.01;100.00
12799;BME280;19250;42.646;26.980;2023-02-18T06:51:55;99417.13;;;7.15;100.00
12799;BME280;19250;42.646;26.980;2023-02-18T06:54:22;99403.13;;;7.13;100.00
12799;BME280;19250;42.646;26.980;2023-02-18T06:56:49;99393.78;;;6.98;100.00
12799;BME280;19250;42.646;26.980;2023-02-18T06:59:18;99379.56;;;6.99;100.00
12799;BME280;19250;42.646;26.980;2023-02-18T07:01:45;99400.28;;;7.05;100.00
12799;BME280;19250;42.646;26.980;2023-02-18T07:04:12;99389.69;;;7.05;100.00
12799;BME280;19250;42.646;26.980;2023-02-18T07:06:40;99397.22;;;7.09;100.00
12799;BME280;19250;42.646;26.980;2023-02-18T07:09:07;99403.13;;;7.13;99.66
12799;BME280;19250;42.646;26.980;2023-02-18T07:11:34;99392.25;;;7.16;98.14
12799;BME280;19250;42.646;26.980;2023-02-18T07:14:01;99389.16;;;7.11;98.25
12799;BME280;19250;42.646;26.980;2023-02-18T07:16:30;99392.16;;;7.18;96.65
12799;BME280;19250;42.646;26.980;2023-02-18T07:18:57;99395.91;;;7.36;95.66
12799;BME280;19250;42.646;26.980;2023-02-18T07:21:25;99402.78;;;7.38;95.17
12799;BME280;19250;42.646;26.980;2023-02-18T07:23:52;99397.66;;;7.46;94.90
12799;BME280;19250;42.646;26.980;2023-02-18T07:26:19;99398.31;;;7.59;93.85
12799;BME280;19250;42.646;26.980;2023-02-18T07:28:46;99389.50;;;7.59;93.15
12799;BME280;19250;42.646;26.980;2023-02-18T07:31:14;99399.28;;;7.58;93.53
12799;BME280;19250;42.646;26.980;2023-02-18T07:33:43;99388.66;;;7.58;94.49
12799;BME280;19250;42.646;26.980;2023-02-18T07:36:10;99395.47;;;7.51;96.19
12799;BME280;19250;42.646;26.980;2023-02-18T07:38:38;99384.97;;;7.50;97.70
12799;BME280;19250;42.646;26.980;2023-02-18T07:41:05;99391.19;;;7.60;98.98
12799;BME280;19250;42.646;26.980;2023-02-18T07:43:32;99382.56;;;7.67;97.86
12799;BME280;19250;42.646;26.980;2023-02-18T07:46:04;99393.28;;;7.87;96.42
12799;BME280;19250;42.646;26.980;2023-02-18T07:48:32;99389.31;;;7.72;96.65
12799;BME280;19250;42.646;26.980;2023-02-18T07:51:04;99386.75;;;7.91;96.59
12799;BME280;19250;42.646;26.980;2023-02-18T07:53:34;99387.13;;;7.86;97.62
12799;BME280;19250;42.646;26.980;2023-02-18T07:56:01;99397.22;;;7.83;98.20
12799;BME280;19250;42.646;26.980;2023-02-18T07:58:30;99391.91;;;7.92;98.58
12799;BME280;19250;42.646;26.980;2023-02-18T08:00:58;99314.59;;;7.46;97.25
12799;BME280;19250;42.646;26.980;2023-02-18T08:03:27;99403.91;;;7.87;97.22
12799;BME280;19250;42.646;26.980;2023-02-18T08:05:55;99399.06;;;7.71;99.36
12799;BME280;19250;42.646;26.980;2023-02-18T08:08:26;99398.53;;;7.98;98.11
12799;BME280;19250;42.646;26.980;2023-02-18T08:10:55;99387.97;;;7.87;98.36
12799;BME280;19250;42.646;26.980;2023-02-18T08:13:23;99377.00;;;7.91;95.89
12799;BME280;19250;42.646;26.980;2023-02-18T08:15:53;99376.56;;;7.96;94.57
12799;BME280;19250;42.646;26.980;2023-02-18T08:18:22;99383.16;;;7.92;94.25
12799;BME280;19250;42.646;26.980;2023-02-18T08:20:50;99375.06;;;8.03;93.73
12799;BME280;19250;42.646;26.980;2023-02-18T08:23:18;99375.72;;;7.95;94.16
12799;BME280;19250;42.646;26.980;2023-02-18T08:25:49;99378.22;;;7.87;94.52
12799;BME280;19250;42.646;26.980;2023-02-18T08:28:17;99375.19;;;7.92;93.97
12799;BME280;19250;42.646;26.980;2023-02-18T08:30:44;99376.56;;;7.96;93.58
12799;BME280;19250;42.646;26.980;2023-02-18T08:33:12;99364.84;;;7.98;93.13
12799;BME280;19250;42.646;26.980;2023-02-18T08:35:40;99366.03;;;8.15;91.71
12799;BME280;19250;42.646;26.980;2023-02-18T08:38:08;99379.16;;;8.16;91.69
12799;BME280;19250;42.646;26.980;2023-02-18T08:40:36;99343.63;;;8.08;90.84
12799;BME280;19250;42.646;26.980;2023-02-18T08:43:04;99368.09;;;8.42;89.63
12799;BME280;19250;42.646;26.980;2023-02-18T08:45:32;99363.69;;;8.71;87.89
12799;BME280;19250;42.646;26.980;2023-02-18T08:47:59;99368.34;;;8.98;84.98
12799;BME280;19250;42.646;26.980;2023-02-18T08:50:27;99354.19;;;8.88;84.21
12799;BME280;19250;42.646;26.980;2023-02-18T08:52:55;99355.88;;;8.89;85.25
12799;BME280;19250;42.646;26.980;2023-02-18T08:55:25;99366.22;;;9.20;83.46
12799;BME280;19250;42.646;26.980;2023-02-18T08:57:52;99368.75;;;9.22;83.52
12799;BME280;19250;42.646;26.980;2023-02-18T09:00:21;99369.13;;;9.46;83.55
12799;BME280;19250;42.646;26.980;2023-02-18T09:02:48;99363.94;;;9.54;81.19
12799;BME280;19250;42.646;26.980;2023-02-18T09:05:16;99381.03;;;9.42;81.02
12799;BME280;19250;42.646;26.980;2023-02-18T09:07:43;99369.72;;;9.30;80.94
12799;BME280;19250;42.646;26.980;2023-02-18T09:10:10;99375.72;;;9.42;79.85
12799;BME280;19250;42.646;26.980;2023-02-18T09:12:38;99355.84;;;9.46;78.13
12799;BME280;19250;42.646;26.980;2023-02-18T09:15:05;99368.97;;;9.57;78.10
12799;BME280;19250;42.646;26.980;2023-02-18T09:17:34;99368.66;;;9.79;77.30
12799;BME280;19250;42.646;26.980;2023-02-18T09:20:02;99361.13;;;9.65;77.37
12799;BME280;19250;42.646;26.980;2023-02-18T09:22:30;99355.16;;;9.91;76.71
12799;BME280;19250;42.646;26.980;2023-02-18T09:24:58;99356.50;;;10.14;75.44
12799;BME280;19250;42.646;26.980;2023-02-18T09:27:25;99366.78;;;10.36;73.81
12799;BME280;19250;42.646;26.980;2023-02-18T09:29:52;99353.72;;;10.60;72.06
12799;BME280;19250;42.646;26.980;2023-02-18T09:32:23;99346.81;;;10.40;73.43
12799;BME280;19250;42.646;26.980;2023-02-18T09:34:52;99316.78;;;10.20;71.27
12799;BME280;19250;42.646;26.980;2023-02-18T09:37:19;99320.47;;;10.37;72.05
12799;BME280;19250;42.646;26.980;2023-02-18T09:39:46;99341.47;;;10.13;74.32
12799;BME280;19250;42.646;26.980;2023-02-18T09:42:17;99326.22;;;10.15;73.82
12799;BME280;19250;42.646;26.980;2023-02-18T09:44:48;99334.28;;;10.23;74.23
12799;BME280;19250;42.646;26.980;2023-02-18T09:47:20;99334.66;;;10.55;72.11
12799;BME280;19250;42.646;26.980;2023-02-18T09:49:53;99328.44;;;10.82;70.67
12799;BME280;19250;42.646;26.980;2023-02-18T09:52:23;99314.09;;;10.83;69.65
12799;BME280;19250;42.646;26.980;2023-02-18T09:54:51;99302.44;;;10.84;70.63
12799;BME280;19250;42.646;26.980;2023-02-18T09:57:24;99305.72;;;10.96;71.00
12799;BME280;19250;42.646;26.980;2023-02-18T09:59:56;99310.41;;;11.19;69.28
12799;BME280;19250;42.646;26.980;2023-02-18T10:02:26;99304.72;;;11.14;69.51
12799;BME280;19250;42.646;26.980;2023-02-18T10:04:56;99306.63;;;11.22;70.77
12799;BME280;19250;42.646;26.980;2023-02-18T10:07:26;99306.41;;;11.15;71.26
12799;BME280;19250;42.646;26.980;2023-02-18T10:09:55;99299.28;;;11.24;69.46
12799;BME280;19250;42.646;26.980;2023-02-18T10:12:25;99300.97;;;11.25;71.13
12799;BME280;19250;42.646;26.980;2023-02-18T10:14:54;99300.72;;;11.36;71.47
12799;BME280;19250;42.646;26.980;2023-02-18T10:17:24;99293.28;;;11.22;71.92
12799;BME280;19250;42.646;26.980;2023-02-18T10:19:55;99285.69;;;11.35;72.18
12799;BME280;19250;42.646;26.980;2023-02-18T10:22:25;99274.75;;;11.46;71.86
12799;BME280;19250;42.646;26.980;2023-02-18T10:24:54;99263.78;;;11.57;71.53
12799;BME280;19250;42.646;26.980;2023-02-18T10:27:24;99252.78;;;11.60;71.03
12799;BME280;19250;42.646;26.980;2023-02-18T10:29:53;99262.94;;;11.57;71.78
12799;BME280;19250;42.646;26.980;2023-02-18T10:32:23;99276.63;;;11.54;71.86
12799;BME280;19250;42.646;26.980;2023-02-18T10:34:53;99264.78;;;11.56;69.95
12799;BME280;19250;42.646;26.980;2023-02-18T10:37:42;99283.38;;;11.91;69.11
12799;BME280;19250;42.646;26.980;2023-02-18T10:40:17;99277.63;;;12.20;67.31
12799;BME280;19250;42.646;26.980;2023-02-18T10:42:58;99275.69;;;11.88;69.06
12799;BME280;19250;42.646;26.980;2023-02-18T10:45:35;99261.25;;;12.15;66.46
12799;BME280;19250;42.646;26.980;2023-02-18T10:48:18;99254.56;;;11.77;68.20
12799;BME280;19250;42.646;26.980;2023-02-18T10:50:49;99260.59;;;11.79;68.61
12799;BME280;19250;42.646;26.980;2023-02-18T10:53:21;99249.22;;;11.77;68.32
12799;BME280;19250;42.646;26.980;2023-02-18T10:55:50;99252.28;;;11.82;69.36
12799;BME280;19250;42.646;26.980;2023-02-18T10:58:27;99226.84;;;11.70;67.53
12799;BME280;19250;42.646;26.980;2023-02-18T11:00:56;99245.56;;;11.78;66.40
12799;BME280;19250;42.646;26.980;2023-02-18T11:03:24;99248.03;;;11.72;63.50
12799;BME280;19250;42.646;26.980;2023-02-18T11:05:54;99263.59;;;11.76;62.32
12799;BME280;19250;42.646;26.980;2023-02-18T11:08:25;99255.22;;;11.71;64.11
12799;BME280;19250;42.646;26.980;2023-02-18T11:10:53;99254.56;;;11.77;64.95
12799;BME280;19250;42.646;26.980;2023-02-18T11:13:26;99248.00;;;11.97;63.62
12799;BME280;19250;42.646;26.980;2023-02-18T11:15:56;99246.94;;;11.82;61.86
12799;BME280;19250;42.646;26.980;2023-02-18T11:18:29;99242.09;;;11.86;61.92
12799;BME280;19250;42.646;26.980;2023-02-18T11:20:59;99246.44;;;11.87;62.70
12799;BME280;19250;42.646;26.980;2023-02-18T11:23:29;99231.34;;;11.70;62.72
12799;BME280;19250;42.646;26.980;2023-02-18T11:26:01;99230.91;;;11.57;64.15
12799;BME280;19250;42.646;26.980;2023-02-18T11:28:40;99227.28;;;11.66;64.55
12799;BME280;19250;42.646;26.980;2023-02-18T11:31:15;99216.59;;;11.66;65.42
12799;BME280;19250;42.646;26.980;2023-02-18T11:33:46;99211.94;;;11.68;65.37
12799;BME280;19250;42.646;26.980;2023-02-18T11:36:19;99219.91;;;11.60;65.93
12799;BME280;19250;42.646;26.980;2023-02-18T11:38:52;99215.59;;;11.67;65.80
12799;BME280;19250;42.646;26.980;2023-02-18T11:41:29;99206.16;;;11.80;64.45
12799;BME280;19250;42.646;26.980;2023-02-18T11:43:58;99200.50;;;11.83;63.69
12799;BME280;19250;42.646;26.980;2023-02-18T11:46:26;99177.53;;;11.98;61.91
12799;BME280;19250;42.646;26.980;2023-02-18T11:48:54;99188.41;;;12.21;61.00
12799;BME280;19250;42.646;26.980;2023-02-18T11:51:24;99186.84;;;11.94;61.22
12799;BME280;19250;42.646;26.980;2023-02-18T11:53:59;99189.81;;;11.83;61.41
12799;BME280;19250;42.646;26.980;2023-02-18T11:56:29;99169.59;;;11.81;61.49
12799;BME280;19250;42.646;26.980;2023-02-18T11:58:57;99192.56;;;12.08;60.25
12799;BME280;19250;42.646;26.980;2023-02-18T12:01:37;99203.47;;;12.30;59.64
12799;BME280;19250;42.646;26.980;2023-02-18T12:04:12;99215.41;;;12.02;60.40
12799;BME280;19250;42.646;26.980;2023-02-18T12:06:47;99202.03;;;11.86;61.43
12799;BME280;19250;42.646;26.980;2023-02-18T12:09:24;99214.03;;;11.90;62.00
12799;BME280;19250;42.646;26.980;2023-02-18T12:11:55;99198.44;;;12.27;60.57
12799;BME280;19250;42.646;26.980;2023-02-18T12:14:23;99191.94;;;12.22;59.60
12799;BME280;19250;42.646;26.980;2023-02-18T12:17:15;99180.72;;;12.26;59.81
12799;BME280;19250;42.646;26.980;2023-02-18T12:20:01;99179.94;;;12.50;57.93
12799;BME280;19250;42.646;26.980;2023-02-18T12:22:39;99182.25;;;12.37;58.58
12799;BME280;19250;42.646;26.980;2023-02-18T12:25:23;99179.59;;;12.53;58.20
12799;BME280;19250;42.646;26.980;2023-02-18T12:28:00;99165.88;;;12.40;59.40
12799;BME280;19250;42.646;26.980;2023-02-18T12:30:59;99149.19;;;12.62;58.04
12799;BME280;19250;42.646;26.980;2023-02-18T12:33:40;99168.91;;;12.77;56.51
12799;BME280;19250;42.646;26.980;2023-02-18T12:36:16;99162.53;;;12.86;56.49
12799;BME280;19250;42.646;26.980;2023-02-18T12:39:02;99158.47;;;13.06;54.78
12799;BME280;19250;42.646;26.980;2023-02-18T12:41:43;99170.69;;;13.01;55.06
12799;BME280;19250;42.646;26.980;2023-02-18T12:44:26;99163.84;;;12.98;56.02
12799;BME280;19250;42.646;26.980;2023-02-18T12:47:14;99163.00;;;13.06;55.76
12799;BME280;19250;42.646;26.980;2023-02-18T12:50:12;99160.69;;;12.87;56.25
12799;BME280;19250;42.646;26.980;2023-02-18T12:52:56;99147.16;;;12.80;56.87
12799;BME280;19250;42.646;26.980;2023-02-18T12:55:51;99149.50;;;12.83;56.70
12799;BME280;19250;42.646;26.980;2023-02-18T12:58:35;99148.00;;;12.73;56.55
12799;BME280;19250;42.646;26.980;2023-02-18T13:01:28;99151.84;;;12.86;56.27
12799;BME280;19250;42.646;26.980;2023-02-18T13:04:23;99154.31;;;12.88;55.43
12799;BME280;19250;42.646;26.980;2023-02-18T13:10:00;99133.41;;;12.99;54.03
12799;BME280;19250;42.646;26.980;2023-02-18T13:12:37;99131.91;;;12.89;53.04
12799;BME280;19250;42.646;26.980;2023-02-18T13:15:16;99132.56;;;12.91;52.20
12799;BME280;19250;42.646;26.980;2023-02-18T13:17:46;99138.25;;;13.04;51.61
12799;BME280;19250;42.646;26.980;2023-02-18T13:20:19;99133.91;;;12.95;51.78
12799;BME280;19250;42.646;26.980;2023-02-18T13:22:48;99125.38;;;12.99;51.71
12799;BME280;19250;42.646;26.980;2023-02-18T13:25:18;99123.03;;;13.13;50.97
12799;BME280;19250;42.646;26.980;2023-02-18T13:27:49;99135.09;;;12.84;51.81
12799;BME280;19250;42.646;26.980;2023-02-18T13:30:26;99070.63;;;12.47;51.71
12799;BME280;19250;42.646;26.980;2023-02-18T13:33:03;99137.97;;;12.75;52.19
12799;BME280;19250;42.646;26.980;2023-02-18T13:35:37;99135.44;;;12.89;51.38
12799;BME280;19250;42.646;26.980;2023-02-18T13:41:06;99127.41;;;12.81;51.86
12799;BME280;19250;42.646;26.980;2023-02-18T13:43:35;99124.53;;;12.99;51.24
12799;BME280;19250;42.646;26.980;2023-02-18T13:46:12;99112.34;;;12.96;50.86
12799;BME280;19250;42.646;26.980;2023-02-18T13:48:46;99110.03;;;13.40;49.41
12799;BME280;19250;42.646;26.980;2023-02-18T13:51:16;99107.28;;;13.18;49.85
12799;BME280;19250;42.646;26.980;2023-02-18T13:53:49;99103.28;;;13.05;51.10
12799;BME280;19250;42.646;26.980;2023-02-18T13:56:25;99100.59;;;13.14;50.38